Time;durP1;ratioP1;P1;durP2;ratioP2;P2;SDS_P1;SDS_P2;PMS_P1;PMS_P2;Temp;Humidity;BMP_temperature;BMP_pressure;BME280_temperature;BME280_humidity;BME280_pressure;Samples;Min_cycle;Max_cycle;Signal;HPM_P1;HPM_P2
2021/11/11 00:01:59;;;;;;;70.00;33.75;;;;;;;0.71;94.91;101222.06;20977002;28;20098;-68
2021/11/11 00:12:01;;;;;;;60.65;27.85;;;;;;;0.62;94.71;101232.91;20976680;28;20098;-68
2021/11/11 00:22:03;;;;;;;50.38;25.45;;;;;;;0.43;94.85;101228.78;20976329;28;20048;-67
2021/11/11 00:32:05;;;;;;;54.35;27.08;;;;;;;0.42;94.87;101226.13;20975421;28;20110;-67
2021/11/11 00:42:07;;;;;;;55.13;27.38;;;;;;;0.32;95.37;101235.19;20974612;28;20098;-68
2021/11/11 00:52:09;;;;;;;57.50;25.52;;;;;;;0.20;94.81;101212.44;20973244;28;20268;-68
2021/11/11 01:02:11;;;;;;;53.30;26.38;;;;;;;0.19;95.06;101207.19;20972922;28;20045;-68
2021/11/11 01:12:12;;;;;;;51.65;25.88;;;;;;;0.01;94.86;101204.78;20973283;28;20135;-68
2021/11/11 01:22:14;;;;;;;56.05;25.60;;;;;;;-0.02;94.77;101205.53;20972031;28;20516;-69
2021/11/11 01:32:15;;;;;;;47.65;24.85;;;;;;;-0.08;94.56;101199.28;20970366;28;20177;-68
2021/11/11 01:42:17;;;;;;;47.47;25.58;;;;;;;-0.13;95.06;101186.22;20970924;28;20052;-68
2021/11/11 01:52:19;;;;;;;48.72;24.77;;;;;;;-0.08;94.52;101192.44;20969991;28;20166;-69
2021/11/11 02:02:29;;;;;;;46.30;24.40;;;;;;;-0.07;94.48;101172.72;20969589;28;20075;-69
2021/11/11 02:12:31;;;;;;;49.65;25.55;;;;;;;-0.13;94.33;101175.06;20969644;28;20462;-69
2021/11/11 02:22:34;;;;;;;45.47;23.23;;;;;;;-0.41;94.05;101173.94;20968510;28;20051;-69
2021/11/11 02:32:36;;;;;;;48.38;24.52;;;;;;;-0.39;95.40;101182.56;20968138;28;20048;-69
2021/11/11 02:42:40;;;;;;;47.88;22.38;;;;;;;-0.32;95.00;101176.88;20968029;28;20032;-69
2021/11/11 02:52:46;;;;;;;55.63;28.20;;;;;;;-0.23;94.52;101175.50;20968018;28;20551;-69
2021/11/11 03:02:49;;;;;;;48.42;24.17;;;;;;;-0.29;94.33;101173.53;20977334;28;20102;-69
2021/11/11 03:12:52;;;;;;;52.40;25.98;;;;;;;-0.18;94.20;101179.13;20981456;28;20489;-69
2021/11/11 03:22:54;;;;;;;47.10;23.15;;;;;;;-0.01;93.93;101178.09;20980359;28;20041;-69
2021/11/11 03:32:57;;;;;;;45.83;23.25;;;;;;;0.09;93.36;101171.59;20980233;28;20045;-68
2021/11/11 03:43:00;;;;;;;62.65;27.42;;;;;;;0.14;95.62;101176.09;20979726;28;20118;-69
2021/11/11 03:53:03;;;;;;;56.78;26.10;;;;;;;0.33;95.91;101179.41;20978705;28;20075;-68
2021/11/11 04:03:05;;;;;;;86.03;30.65;;;;;;;0.35;97.34;101213.84;20976435;28;20052;-68
2021/11/11 04:13:07;;;;;;;102.50;29.33;;;;;;;0.28;98.46;101210.13;20976633;28;20135;-68
2021/11/11 04:23:09;;;;;;;92.88;29.83;;;;;;;0.36;98.97;101207.88;20975762;28;20094;-68
2021/11/11 04:33:12;;;;;;;78.55;27.50;;;;;;;0.52;99.43;101211.06;20974163;28;20052;-67
2021/11/11 04:43:44;;;;;;;67.70;30.33;;;;;;;0.62;99.43;101209.72;20974119;28;20439;-68
2021/11/11 05:04:06;;;;;;;73.00;31.05;;;;;;;0.74;99.36;101212.75;20972747;28;20409;-68
2021/11/11 05:14:07;;;;;;;91.10;31.65;;;;;;;0.71;98.89;101207.47;20973506;28;20048;-68
2021/11/11 05:24:11;;;;;;;84.40;32.72;;;;;;;0.84;99.81;101215.69;20971366;28;20040;-68
2021/11/11 05:34:12;;;;;;;73.68;28.90;;;;;;;0.98;99.17;101217.06;20971135;28;20048;-68
2021/11/11 05:44:14;;;;;;;82.13;31.08;;;;;;;0.88;99.53;101210.69;20971140;28;20086;-68
2021/11/11 05:54:15;;;;;;;70.97;31.95;;;;;;;1.06;99.66;101231.13;20971791;28;20075;-68
2021/11/11 06:04:17;;;;;;;68.25;30.48;;;;;;;0.98;99.40;101245.41;20971319;28;20048;-68
2021/11/11 06:14:19;;;;;;;107.97;32.67;;;;;;;1.06;99.68;101243.13;20970165;28;20044;-68
2021/11/11 06:24:21;;;;;;;62.03;28.27;;;;;;;1.06;99.21;101256.91;20969893;28;20106;-68
2021/11/11 06:34:22;;;;;;;97.32;31.30;;;;;;;1.08;99.14;101269.84;20976902;28;20109;-68
2021/11/11 06:44:24;;;;;;;53.50;28.38;;;;;;;0.96;99.01;101296.94;20984383;28;20041;-68
2021/11/11 06:54:25;;;;;;;67.65;30.17;;;;;;;1.09;99.46;101297.38;20983854;28;20071;-68
2021/11/11 07:04:27;;;;;;;60.30;30.73;;;;;;;1.21;99.08;101292.69;20982160;28;20041;-67
2021/11/11 07:14:28;;;;;;;61.70;29.35;;;;;;;1.31;98.66;101301.63;20976256;28;20699;-67
2021/11/11 07:24:30;;;;;;;62.67;30.08;;;;;;;1.37;98.94;101314.75;20980695;28;20090;-67
2021/11/11 07:34:33;;;;;;;65.75;29.02;;;;;;;1.36;98.70;101313.00;20981350;28;20067;-67
2021/11/11 07:44:35;;;;;;;56.47;27.58;;;;;;;1.48;98.53;101334.06;20980307;28;20045;-67
2021/11/11 07:54:36;;;;;;;67.88;29.17;;;;;;;1.43;98.32;101333.03;20978849;28;20098;-66
2021/11/11 08:04:37;;;;;;;67.43;29.80;;;;;;;1.54;98.34;101339.47;20971470;28;20047;-66
2021/11/11 08:14:40;;;;;;;61.97;28.38;;;;;;;1.77;97.96;101330.84;20967799;28;20047;-67
2021/11/11 08:24:43;;;;;;;64.90;29.20;;;;;;;1.93;97.60;101346.84;20930831;28;20543;-67
2021/11/11 08:34:46;;;;;;;89.78;29.95;;;;;;;1.94;97.59;101346.91;20962202;28;20493;-69
2021/11/11 08:44:48;;;;;;;54.83;24.88;;;;;;;2.26;98.77;101352.28;20973355;28;20387;-71
2021/11/11 08:54:52;;;;;;;59.80;24.63;;;;;;;2.65;93.72;101360.44;20973822;28;20422;-71
2021/11/11 09:04:53;;;;;;;50.05;23.60;;;;;;;2.69;93.78;101362.31;20971198;28;20079;-72
2021/11/11 09:14:55;;;;;;;55.88;22.92;;;;;;;2.13;96.65;101375.94;20968927;28;20109;-71
2021/11/11 09:24:56;;;;;;;54.03;24.40;;;;;;;2.25;97.20;101374.66;20971262;28;20599;-71
2021/11/11 09:34:58;;;;;;;59.50;24.90;;;;;;;2.41;96.43;101380.34;20958423;28;20495;-71
2021/11/11 09:45:03;;;;;;;57.90;25.83;;;;;;;2.73;96.71;101360.66;20970690;28;20048;-71
2021/11/11 10:05:28;;;;;;;67.80;27.25;;;;;;;3.35;94.99;101364.28;20960060;28;20510;-72
2021/11/11 10:15:30;;;;;;;61.80;25.90;;;;;;;3.53;93.47;101361.34;20985533;28;20044;-71
2021/11/11 10:25:31;;;;;;;66.97;27.67;;;;;;;3.48;91.98;101343.09;20977992;28;20044;-71
2021/11/11 10:35:35;;;;;;;61.80;27.42;;;;;;;3.63;91.70;101340.06;20981907;28;20105;-72
2021/11/11 10:45:40;;;;;;;65.73;28.53;;;;;;;3.86;92.27;101346.75;20982804;28;20052;-71
2021/11/11 10:55:47;;;;;;;70.05;29.48;;;;;;;4.01;92.38;101350.56;20977291;28;20528;-69
2021/11/11 11:05:54;;;;;;;57.20;26.48;;;;;;;3.97;92.36;101338.38;20957381;28;20041;-69
2021/11/11 11:16:17;;;;;;;62.20;26.90;;;;;;;4.03;92.39;101349.78;20975226;28;20052;-69
2021/11/11 11:26:28;;;;;;;69.85;28.38;;;;;;;4.18;90.37;101351.91;20976213;28;20052;-67
2021/11/11 11:36:39;;;;;;;84.15;33.35;;;;;;;3.95;92.75;101340.06;20976384;28;20045;-70
2021/11/11 11:46:42;;;;;;;80.18;33.70;;;;;;;3.87;94.04;101324.28;20975927;28;20429;-71
2021/11/11 11:56:48;;;;;;;78.68;33.33;;;;;;;4.24;92.87;101313.16;20970389;28;20094;-70
2021/11/11 12:07:14;;;;;;;74.00;31.90;;;;;;;4.16;92.61;101298.25;20974632;28;20048;-66
2021/11/11 12:38:44;;;;;;;78.03;32.70;;;;;;;3.70;92.35;101277.25;20973094;28;20098;-67
2021/11/11 12:48:47;;;;;;;77.28;31.45;;;;;;;3.95;92.60;101270.97;20973066;28;20106;-68
2021/11/11 12:59:04;;;;;;;76.70;32.58;;;;;;;4.25;92.49;101276.03;20971096;28;20051;-66
2021/11/11 13:09:19;;;;;;;74.20;32.40;;;;;;;4.50;91.65;101268.81;20968386;28;20110;-67
2021/11/11 13:19:31;;;;;;;76.07;33.67;;;;;;;4.52;91.98;101273.22;20969887;28;20102;-67
2021/11/11 14:01:29;;;;;;;79.93;35.10;;;;;;;4.33;92.26;101260.66;20975931;28;20044;-66
2021/11/11 16:27:05;;;;;;;79.20;31.63;;;;;;;3.84;94.94;101298.34;20981252;28;20117;-66
2021/11/11 16:37:08;;;;;;;76.30;30.17;;;;;;;3.89;96.34;101298.44;20979376;28;20093;-66
2021/11/11 16:47:10;;;;;;;85.80;34.05;;;;;;;3.80;96.32;101299.94;20977962;28;20056;-67
2021/11/11 16:57:11;;;;;;;80.35;30.60;;;;;;;3.69;96.39;101314.34;20980190;28;20045;-66
2021/11/11 17:07:13;;;;;;;74.68;26.80;;;;;;;3.37;97.01;101317.75;20977052;28;20098;-66
2021/11/11 17:17:18;;;;;;;88.93;30.73;;;;;;;3.36;96.68;101323.78;20913450;28;20457;-66
2021/11/11 17:27:22;;;;;;;101.57;30.73;;;;;;;3.29;97.32;101333.94;20891583;28;20457;-66
2021/11/11 17:37:23;;;;;;;92.60;30.43;;;;;;;3.36;97.20;101336.72;20892775;28;20045;-67
2021/11/11 17:47:33;;;;;;;121.45;30.83;;;;;;;3.27;97.84;101334.72;20891571;28;20486;-66
2021/11/11 17:57:37;;;;;;;134.25;34.25;;;;;;;3.39;97.61;101336.78;20892683;28;20114;-66
2021/11/11 18:07:39;;;;;;;125.95;33.80;;;;;;;3.31;98.80;101350.41;20893515;28;20052;-66
2021/11/11 18:17:50;;;;;;;106.15;33.28;;;;;;;3.30;98.90;101334.81;20958450;28;20044;-66
2021/11/11 18:27:52;;;;;;;111.03;34.03;;;;;;;3.32;99.05;101326.25;20978714;28;20063;-66
2021/11/11 18:37:54;;;;;;;125.07;31.40;;;;;;;3.16;98.69;101318.88;20989127;28;20044;-66
2021/11/11 18:47:58;;;;;;;104.00;31.25;;;;;;;3.39;98.09;101316.94;20987944;28;20052;-70
2021/11/11 18:58:01;;;;;;;113.63;29.77;;;;;;;3.30;99.24;101312.38;20988861;28;20127;-69
2021/11/11 19:08:13;;;;;;;105.45;32.80;;;;;;;3.40;99.53;101308.34;20977886;28;20107;-69
2021/11/11 19:18:26;;;;;;;113.97;31.52;;;;;;;3.48;98.59;101313.75;20948501;28;20090;-69
2021/11/11 19:28:28;;;;;;;99.33;31.70;;;;;;;3.38;98.83;101304.84;20983493;28;20049;-69
2021/11/11 19:59:15;;;;;;;92.45;27.48;;;;;;;3.31;99.13;101272.75;20983047;28;20055;-68
2021/11/11 20:40:25;;;;;;;190.55;34.97;;;;;;;3.21;100.00;101277.59;20895473;28;20102;-69
2021/11/11 21:00:50;;;;;;;139.10;33.67;;;;;;;3.11;100.00;101268.69;20895059;28;20045;-69
2021/11/11 21:11:02;;;;;;;121.03;29.20;;;;;;;3.06;99.67;101270.28;20904161;28;20049;-69
2021/11/11 21:21:06;;;;;;;129.60;29.67;;;;;;;2.98;99.47;101264.91;20975176;28;20102;-69
2021/11/11 21:31:07;;;;;;;151.48;31.08;;;;;;;2.95;99.83;101251.00;20975486;28;20129;-69
2021/11/11 21:41:15;;;;;;;121.63;27.70;;;;;;;2.78;100.00;101225.53;20975381;28;20056;-70
2021/11/11 21:51:18;;;;;;;134.27;30.33;;;;;;;2.76;100.00;101222.00;20975990;28;20555;-70
2021/11/11 22:32:18;;;;;;;63.78;22.98;;;;;;;2.45;99.86;101211.63;20907015;28;20471;-71
2021/11/11 22:42:19;;;;;;;108.03;24.08;;;;;;;2.48;100.00;101206.50;20906515;28;20045;-71
2021/11/11 22:52:22;;;;;;;75.88;21.40;;;;;;;2.46;100.00;101208.19;20904289;28;20083;-71
2021/11/11 23:02:24;;;;;;;75.82;23.30;;;;;;;2.49;99.28;101198.84;20903051;28;20052;-71
2021/11/11 23:23:22;;;;;;;81.53;22.92;;;;;;;2.23;99.66;101186.81;20992448;28;20101;-70
2021/11/11 23:33:10;;;;;;;116.35;26.25;;;;;;;2.20;99.15;101178.97;20989163;28;20060;-70
2021/11/11 23:43:13;;;;;;;94.90;26.13;;;;;;;2.09;99.11;101178.63;20991498;28;20095;-71
